sensor_id;sensor_type;location;lat;lon;timestamp;P1;durP1;ratioP1;P2;durP2;ratioP2
51020;SDS011;38907;45.562;8.856;2022-11-28T00:01:01;58.90;;;35.05;;
51020;SDS011;38907;45.562;8.856;2022-11-28T00:06:05;59.88;;;37.05;;
51020;SDS011;38907;45.562;8.856;2022-11-28T00:11:09;58.45;;;35.70;;
51020;SDS011;38907;45.562;8.856;2022-11-28T00:16:13;59.55;;;35.42;;
51020;SDS011;38907;45.562;8.856;2022-11-28T00:21:17;60.47;;;34.13;;
51020;SDS011;38907;45.562;8.856;2022-11-28T00:26:20;52.78;;;33.75;;
51020;SDS011;38907;45.562;8.856;2022-11-28T00:31:24;52.60;;;30.92;;
51020;SDS011;38907;45.562;8.856;2022-11-28T00:36:29;50.83;;;31.15;;
51020;SDS011;38907;45.562;8.856;2022-11-28T00:41:31;55.95;;;31.92;;
51020;SDS011;38907;45.562;8.856;2022-11-28T00:46:34;49.17;;;31.58;;
51020;SDS011;38907;45.562;8.856;2022-11-28T00:51:37;50.65;;;32.63;;
51020;SDS011;38907;45.562;8.856;2022-11-28T00:56:39;60.10;;;35.10;;
51020;SDS011;38907;45.562;8.856;2022-11-28T01:01:42;50.05;;;31.23;;
51020;SDS011;38907;45.562;8.856;2022-11-28T01:06:46;51.75;;;31.25;;
51020;SDS011;38907;45.562;8.856;2022-11-28T01:11:49;56.53;;;33.10;;
51020;SDS011;38907;45.562;8.856;2022-11-28T01:16:52;51.75;;;31.33;;
51020;SDS011;38907;45.562;8.856;2022-11-28T01:21:56;52.08;;;31.58;;
51020;SDS011;38907;45.562;8.856;2022-11-28T01:26:57;54.50;;;30.92;;
51020;SDS011;38907;45.562;8.856;2022-11-28T01:31:59;51.60;;;30.45;;
51020;SDS011;38907;45.562;8.856;2022-11-28T01:37:03;45.55;;;29.00;;
51020;SDS011;38907;45.562;8.856;2022-11-28T01:42:04;41.47;;;28.15;;
51020;SDS011;38907;45.562;8.856;2022-11-28T01:47:06;49.78;;;29.17;;
51020;SDS011;38907;45.562;8.856;2022-11-28T01:52:10;47.55;;;27.52;;
51020;SDS011;38907;45.562;8.856;2022-11-28T01:57:16;39.78;;;26.33;;
51020;SDS011;38907;45.562;8.856;2022-11-28T02:02:22;43.20;;;27.02;;
51020;SDS011;38907;45.562;8.856;2022-11-28T02:07:28;39.58;;;25.90;;
51020;SDS011;38907;45.562;8.856;2022-11-28T02:12:34;43.17;;;26.20;;
51020;SDS011;38907;45.562;8.856;2022-11-28T02:17:58;42.15;;;25.90;;
51020;SDS011;38907;45.562;8.856;2022-11-28T02:23:13;40.97;;;24.08;;
51020;SDS011;38907;45.562;8.856;2022-11-28T02:28:27;39.47;;;24.10;;
51020;SDS011;38907;45.562;8.856;2022-11-28T02:33:57;36.25;;;21.67;;
51020;SDS011;38907;45.562;8.856;2022-11-28T02:39:02;31.88;;;22.08;;
51020;SDS011;38907;45.562;8.856;2022-11-28T02:44:13;35.22;;;22.35;;
51020;SDS011;38907;45.562;8.856;2022-11-28T02:49:20;36.40;;;23.33;;
51020;SDS011;38907;45.562;8.856;2022-11-28T02:54:26;30.88;;;21.23;;
51020;SDS011;38907;45.562;8.856;2022-11-28T02:59:31;36.13;;;21.88;;
51020;SDS011;38907;45.562;8.856;2022-11-28T03:04:49;28.73;;;21.15;;
51020;SDS011;38907;45.562;8.856;2022-11-28T03:10:08;37.83;;;21.38;;
51020;SDS011;38907;45.562;8.856;2022-11-28T03:15:20;34.58;;;21.15;;
51020;SDS011;38907;45.562;8.856;2022-11-28T03:20:29;30.73;;;21.63;;
51020;SDS011;38907;45.562;8.856;2022-11-28T03:25:43;30.77;;;20.73;;
51020;SDS011;38907;45.562;8.856;2022-11-28T03:30:54;31.08;;;20.42;;
51020;SDS011;38907;45.562;8.856;2022-11-28T03:36:02;29.02;;;21.17;;
51020;SDS011;38907;45.562;8.856;2022-11-28T03:41:09;31.67;;;21.48;;
51020;SDS011;38907;45.562;8.856;2022-11-28T03:46:17;37.05;;;23.33;;
51020;SDS011;38907;45.562;8.856;2022-11-28T03:51:24;33.45;;;22.13;;
51020;SDS011;38907;45.562;8.856;2022-11-28T03:56:33;31.38;;;21.50;;
51020;SDS011;38907;45.562;8.856;2022-11-28T04:01:42;31.95;;;21.45;;
51020;SDS011;38907;45.562;8.856;2022-11-28T04:06:53;31.25;;;21.42;;
51020;SDS011;38907;45.562;8.856;2022-11-28T04:11:58;34.30;;;22.23;;
51020;SDS011;38907;45.562;8.856;2022-11-28T04:17:09;32.88;;;21.88;;
51020;SDS011;38907;45.562;8.856;2022-11-28T04:22:17;33.45;;;20.83;;
51020;SDS011;38907;45.562;8.856;2022-11-28T04:27:25;32.67;;;22.52;;
51020;SDS011;38907;45.562;8.856;2022-11-28T04:32:30;34.40;;;22.80;;
51020;SDS011;38907;45.562;8.856;2022-11-28T04:37:37;40.78;;;21.15;;
51020;SDS011;38907;45.562;8.856;2022-11-28T04:42:41;31.48;;;20.50;;
51020;SDS011;38907;45.562;8.856;2022-11-28T04:47:46;31.17;;;20.55;;
51020;SDS011;38907;45.562;8.856;2022-11-28T04:52:50;29.38;;;19.60;;
51020;SDS011;38907;45.562;8.856;2022-11-28T04:58:01;28.48;;;19.67;;
51020;SDS011;38907;45.562;8.856;2022-11-28T05:03:11;30.05;;;19.50;;
51020;SDS011;38907;45.562;8.856;2022-11-28T05:08:15;32.95;;;19.38;;
51020;SDS011;38907;45.562;8.856;2022-11-28T05:18:19;26.42;;;18.15;;
51020;SDS011;38907;45.562;8.856;2022-11-28T05:23:22;29.48;;;17.80;;
51020;SDS011;38907;45.562;8.856;2022-11-28T05:28:24;25.70;;;18.52;;
51020;SDS011;38907;45.562;8.856;2022-11-28T05:33:26;34.10;;;21.92;;
51020;SDS011;38907;45.562;8.856;2022-11-28T05:38:31;31.40;;;20.73;;
51020;SDS011;38907;45.562;8.856;2022-11-28T05:43:34;34.78;;;19.65;;
51020;SDS011;38907;45.562;8.856;2022-11-28T05:48:36;24.95;;;16.90;;
51020;SDS011;38907;45.562;8.856;2022-11-28T05:53:39;30.33;;;18.83;;
51020;SDS011;38907;45.562;8.856;2022-11-28T05:58:42;30.85;;;20.73;;
51020;SDS011;38907;45.562;8.856;2022-11-28T06:03:44;30.53;;;18.93;;
51020;SDS011;38907;45.562;8.856;2022-11-28T06:08:48;26.60;;;18.25;;
51020;SDS011;38907;45.562;8.856;2022-11-28T06:13:51;30.67;;;19.50;;
51020;SDS011;38907;45.562;8.856;2022-11-28T06:18:53;28.13;;;19.38;;
51020;SDS011;38907;45.562;8.856;2022-11-28T06:23:58;25.07;;;18.20;;
51020;SDS011;38907;45.562;8.856;2022-11-28T06:34:02;39.60;;;23.27;;
51020;SDS011;38907;45.562;8.856;2022-11-28T06:39:05;32.42;;;21.60;;
51020;SDS011;38907;45.562;8.856;2022-11-28T06:44:07;31.45;;;20.98;;
51020;SDS011;38907;45.562;8.856;2022-11-28T06:49:12;30.60;;;19.38;;
51020;SDS011;38907;45.562;8.856;2022-11-28T06:54:15;44.83;;;23.63;;
51020;SDS011;38907;45.562;8.856;2022-11-28T06:59:17;43.22;;;21.75;;
51020;SDS011;38907;45.562;8.856;2022-11-28T07:04:19;37.20;;;23.33;;
51020;SDS011;38907;45.562;8.856;2022-11-28T07:09:22;36.47;;;22.15;;
51020;SDS011;38907;45.562;8.856;2022-11-28T07:14:24;38.17;;;22.48;;
51020;SDS011;38907;45.562;8.856;2022-11-28T07:19:26;31.10;;;20.70;;
51020;SDS011;38907;45.562;8.856;2022-11-28T07:24:29;33.47;;;20.65;;
51020;SDS011;38907;45.562;8.856;2022-11-28T07:29:31;34.47;;;21.00;;
51020;SDS011;38907;45.562;8.856;2022-11-28T07:34:35;28.85;;;19.20;;
51020;SDS011;38907;45.562;8.856;2022-11-28T07:39:38;28.00;;;19.67;;
51020;SDS011;38907;45.562;8.856;2022-11-28T07:44:41;29.00;;;19.65;;
51020;SDS011;38907;45.562;8.856;2022-11-28T07:49:43;31.58;;;19.80;;
51020;SDS011;38907;45.562;8.856;2022-11-28T07:54:48;38.75;;;22.40;;
51020;SDS011;38907;45.562;8.856;2022-11-28T07:59:50;36.33;;;22.70;;
51020;SDS011;38907;45.562;8.856;2022-11-28T08:04:52;38.33;;;22.30;;
51020;SDS011;38907;45.562;8.856;2022-11-28T08:09:56;42.50;;;22.98;;
51020;SDS011;38907;45.562;8.856;2022-11-28T08:14:57;36.45;;;21.58;;
51020;SDS011;38907;45.562;8.856;2022-11-28T08:19:59;38.45;;;21.08;;
51020;SDS011;38907;45.562;8.856;2022-11-28T08:25:03;37.53;;;21.58;;
51020;SDS011;38907;45.562;8.856;2022-11-28T08:30:06;35.55;;;20.80;;
51020;SDS011;38907;45.562;8.856;2022-11-28T08:35:09;39.92;;;22.48;;
51020;SDS011;38907;45.562;8.856;2022-11-28T08:40:13;37.78;;;21.52;;
51020;SDS011;38907;45.562;8.856;2022-11-28T08:45:15;33.38;;;21.17;;
51020;SDS011;38907;45.562;8.856;2022-11-28T08:50:17;34.65;;;21.50;;
51020;SDS011;38907;45.562;8.856;2022-11-28T08:55:20;38.42;;;21.40;;
51020;SDS011;38907;45.562;8.856;2022-11-28T09:00:22;32.92;;;19.95;;
51020;SDS011;38907;45.562;8.856;2022-11-28T09:05:24;33.72;;;20.42;;
51020;SDS011;38907;45.562;8.856;2022-11-28T09:10:27;33.85;;;21.35;;
51020;SDS011;38907;45.562;8.856;2022-11-28T09:15:29;35.00;;;20.88;;
51020;SDS011;38907;45.562;8.856;2022-11-28T09:20:32;32.37;;;20.43;;
51020;SDS011;38907;45.562;8.856;2022-11-28T09:25:36;33.80;;;21.33;;
51020;SDS011;38907;45.562;8.856;2022-11-28T09:30:41;37.00;;;23.10;;
51020;SDS011;38907;45.562;8.856;2022-11-28T09:35:43;34.38;;;23.08;;
51020;SDS011;38907;45.562;8.856;2022-11-28T09:40:47;39.10;;;23.05;;
51020;SDS011;38907;45.562;8.856;2022-11-28T09:45:51;32.92;;;20.55;;
51020;SDS011;38907;45.562;8.856;2022-11-28T09:50:56;32.00;;;19.98;;
51020;SDS011;38907;45.562;8.856;2022-11-28T09:56:05;28.55;;;18.55;;
51020;SDS011;38907;45.562;8.856;2022-11-28T10:01:14;28.45;;;18.45;;
51020;SDS011;38907;45.562;8.856;2022-11-28T10:06:22;24.17;;;16.75;;
51020;SDS011;38907;45.562;8.856;2022-11-28T10:11:33;29.65;;;17.15;;
51020;SDS011;38907;45.562;8.856;2022-11-28T10:16:48;21.67;;;13.52;;
51020;SDS011;38907;45.562;8.856;2022-11-28T10:21:54;24.58;;;13.63;;
51020;SDS011;38907;45.562;8.856;2022-11-28T10:27:00;21.30;;;13.65;;
51020;SDS011;38907;45.562;8.856;2022-11-28T10:32:04;20.42;;;12.63;;
51020;SDS011;38907;45.562;8.856;2022-11-28T10:37:09;16.17;;;11.07;;
51020;SDS011;38907;45.562;8.856;2022-11-28T10:42:18;14.45;;;9.77;;
51020;SDS011;38907;45.562;8.856;2022-11-28T10:47:32;16.63;;;10.25;;
51020;SDS011;38907;45.562;8.856;2022-11-28T10:52:53;18.23;;;10.82;;
51020;SDS011;38907;45.562;8.856;2022-11-28T10:58:03;20.00;;;10.73;;
51020;SDS011;38907;45.562;8.856;2022-11-28T11:03:16;15.95;;;10.95;;
51020;SDS011;38907;45.562;8.856;2022-11-28T11:08:19;19.35;;;11.40;;
51020;SDS011;38907;45.562;8.856;2022-11-28T11:13:26;15.95;;;11.43;;
51020;SDS011;38907;45.562;8.856;2022-11-28T11:18:30;20.48;;;12.65;;
51020;SDS011;38907;45.562;8.856;2022-11-28T11:23:33;19.23;;;12.70;;
51020;SDS011;38907;45.562;8.856;2022-11-28T11:28:41;19.83;;;12.90;;
51020;SDS011;38907;45.562;8.856;2022-11-28T11:33:45;18.70;;;12.52;;
51020;SDS011;38907;45.562;8.856;2022-11-28T11:38:48;20.23;;;12.10;;
51020;SDS011;38907;45.562;8.856;2022-11-28T11:43:51;18.23;;;11.73;;
51020;SDS011;38907;45.562;8.856;2022-11-28T11:48:53;17.00;;;11.25;;
51020;SDS011;38907;45.562;8.856;2022-11-28T11:53:59;19.58;;;12.07;;
51020;SDS011;38907;45.562;8.856;2022-11-28T11:59:04;22.92;;;12.93;;
51020;SDS011;38907;45.562;8.856;2022-11-28T12:04:16;21.85;;;13.57;;
51020;SDS011;38907;45.562;8.856;2022-11-28T12:09:25;22.20;;;12.90;;
51020;SDS011;38907;45.562;8.856;2022-11-28T12:14:32;22.20;;;13.63;;
51020;SDS011;38907;45.562;8.856;2022-11-28T12:19:37;20.60;;;12.82;;
51020;SDS011;38907;45.562;8.856;2022-11-28T12:25:03;23.67;;;13.55;;
51020;SDS011;38907;45.562;8.856;2022-11-28T12:30:27;21.13;;;12.93;;
51020;SDS011;38907;45.562;8.856;2022-11-28T12:35:40;26.55;;;13.35;;
51020;SDS011;38907;45.562;8.856;2022-11-28T12:40:46;24.63;;;12.88;;
51020;SDS011;38907;45.562;8.856;2022-11-28T12:46:05;19.20;;;12.75;;
51020;SDS011;38907;45.562;8.856;2022-11-28T12:56:29;21.23;;;12.75;;
51020;SDS011;38907;45.562;8.856;2022-11-28T13:01:46;21.83;;;13.90;;
51020;SDS011;38907;45.562;8.856;2022-11-28T13:06:59;20.45;;;13.65;;
51020;SDS011;38907;45.562;8.856;2022-11-28T13:12:15;24.38;;;14.18;;
51020;SDS011;38907;45.562;8.856;2022-11-28T13:17:35;23.40;;;13.15;;
51020;SDS011;38907;45.562;8.856;2022-11-28T13:22:47;22.02;;;14.20;;
51020;SDS011;38907;45.562;8.856;2022-11-28T13:28:01;21.75;;;13.68;;
51020;SDS011;38907;45.562;8.856;2022-11-28T13:33:18;23.25;;;14.77;;
51020;SDS011;38907;45.562;8.856;2022-11-28T13:38:39;20.92;;;14.18;;
51020;SDS011;38907;45.562;8.856;2022-11-28T13:43:50;21.13;;;14.00;;
51020;SDS011;38907;45.562;8.856;2022-11-28T13:49:06;22.77;;;14.73;;
51020;SDS011;38907;45.562;8.856;2022-11-28T13:59:47;25.48;;;14.40;;
51020;SDS011;38907;45.562;8.856;2022-11-28T14:04:53;21.83;;;13.85;;
51020;SDS011;38907;45.562;8.856;2022-11-28T14:10:00;25.45;;;13.60;;
51020;SDS011;38907;45.562;8.856;2022-11-28T14:15:20;26.55;;;13.98;;
51020;SDS011;38907;45.562;8.856;2022-11-28T14:20:31;24.88;;;13.60;;
51020;SDS011;38907;45.562;8.856;2022-11-28T14:25:38;24.45;;;14.18;;
51020;SDS011;38907;45.562;8.856;2022-11-28T14:30:43;24.38;;;14.70;;
51020;SDS011;38907;45.562;8.856;2022-11-28T14:41:27;24.35;;;15.13;;
51020;SDS011;38907;45.562;8.856;2022-11-28T14:46:30;27.42;;;15.60;;
51020;SDS011;38907;45.562;8.856;2022-11-28T14:57:25;33.53;;;16.42;;
51020;SDS011;38907;45.562;8.856;2022-11-28T15:02:35;24.20;;;16.27;;
51020;SDS011;38907;45.562;8.856;2022-11-28T15:07:51;26.23;;;16.92;;
51020;SDS011;38907;45.562;8.856;2022-11-28T15:13:05;28.30;;;17.15;;
51020;SDS011;38907;45.562;8.856;2022-11-28T15:18:17;26.85;;;17.30;;
51020;SDS011;38907;45.562;8.856;2022-11-28T15:23:21;25.92;;;16.67;;
51020;SDS011;38907;45.562;8.856;2022-11-28T15:28:26;30.85;;;17.05;;
51020;SDS011;38907;45.562;8.856;2022-11-28T15:33:31;27.83;;;17.00;;
51020;SDS011;38907;45.562;8.856;2022-11-28T15:38:33;29.17;;;19.45;;
51020;SDS011;38907;45.562;8.856;2022-11-28T15:43:41;32.70;;;18.15;;
51020;SDS011;38907;45.562;8.856;2022-11-28T15:48:48;27.23;;;16.60;;
51020;SDS011;38907;45.562;8.856;2022-11-28T15:53:51;29.85;;;17.00;;
51020;SDS011;38907;45.562;8.856;2022-11-28T15:58:54;37.97;;;17.80;;
51020;SDS011;38907;45.562;8.856;2022-11-28T16:03:58;25.75;;;16.08;;
51020;SDS011;38907;45.562;8.856;2022-11-28T16:09:03;30.63;;;17.85;;
51020;SDS011;38907;45.562;8.856;2022-11-28T16:14:08;31.20;;;17.08;;
51020;SDS011;38907;45.562;8.856;2022-11-28T16:19:16;26.27;;;18.30;;
51020;SDS011;38907;45.562;8.856;2022-11-28T16:24:24;26.63;;;17.25;;
51020;SDS011;38907;45.562;8.856;2022-11-28T16:29:30;31.98;;;17.50;;
51020;SDS011;38907;45.562;8.856;2022-11-28T16:34:42;30.38;;;17.30;;
51020;SDS011;38907;45.562;8.856;2022-11-28T16:39:45;28.90;;;18.45;;
51020;SDS011;38907;45.562;8.856;2022-11-28T16:44:49;31.05;;;19.40;;
51020;SDS011;38907;45.562;8.856;2022-11-28T17:00:43;42.17;;;25.08;;
51020;SDS011;38907;45.562;8.856;2022-11-28T17:05:47;39.42;;;23.70;;
51020;SDS011;38907;45.562;8.856;2022-11-28T17:10:49;37.85;;;21.92;;
51020;SDS011;38907;45.562;8.856;2022-11-28T17:15:52;39.88;;;22.42;;
51020;SDS011;38907;45.562;8.856;2022-11-28T17:20:54;32.72;;;19.85;;
51020;SDS011;38907;45.562;8.856;2022-11-28T17:25:56;29.52;;;18.85;;
51020;SDS011;38907;45.562;8.856;2022-11-28T17:30:59;31.58;;;18.00;;
51020;SDS011;38907;45.562;8.856;2022-11-28T17:36:01;31.15;;;18.05;;
51020;SDS011;38907;45.562;8.856;2022-11-28T17:41:04;22.13;;;15.80;;
51020;SDS011;38907;45.562;8.856;2022-11-28T17:46:12;24.23;;;17.25;;
51020;SDS011;38907;45.562;8.856;2022-11-28T17:51:14;31.63;;;18.13;;
51020;SDS011;38907;45.562;8.856;2022-11-28T17:56:17;29.52;;;18.45;;
51020;SDS011;38907;45.562;8.856;2022-11-28T18:01:21;31.30;;;20.10;;
51020;SDS011;38907;45.562;8.856;2022-11-28T18:06:26;32.47;;;19.80;;
51020;SDS011;38907;45.562;8.856;2022-11-28T18:11:28;27.60;;;18.42;;
51020;SDS011;38907;45.562;8.856;2022-11-28T18:16:31;25.92;;;17.02;;
51020;SDS011;38907;45.562;8.856;2022-11-28T18:21:34;35.03;;;18.42;;
51020;SDS011;38907;45.562;8.856;2022-11-28T18:26:36;35.58;;;18.85;;
51020;SDS011;38907;45.562;8.856;2022-11-28T18:31:40;31.05;;;17.95;;
51020;SDS011;38907;45.562;8.856;2022-11-28T18:36:42;34.47;;;17.90;;
51020;SDS011;38907;45.562;8.856;2022-11-28T18:41:44;35.22;;;19.30;;
51020;SDS011;38907;45.562;8.856;2022-11-28T18:46:48;31.15;;;19.55;;
51020;SDS011;38907;45.562;8.856;2022-11-28T18:51:50;33.55;;;20.00;;
51020;SDS011;38907;45.562;8.856;2022-11-28T18:56:52;36.08;;;20.23;;
51020;SDS011;38907;45.562;8.856;2022-11-28T19:01:55;30.02;;;19.42;;
51020;SDS011;38907;45.562;8.856;2022-11-28T19:06:57;32.88;;;21.63;;
51020;SDS011;38907;45.562;8.856;2022-11-28T19:12:00;33.03;;;20.70;;
51020;SDS011;38907;45.562;8.856;2022-11-28T19:17:04;40.67;;;19.40;;
51020;SDS011;38907;45.562;8.856;2022-11-28T19:22:07;42.42;;;21.08;;
51020;SDS011;38907;45.562;8.856;2022-11-28T19:27:09;33.83;;;20.80;;
51020;SDS011;38907;45.562;8.856;2022-11-28T19:32:12;36.80;;;21.55;;
51020;SDS011;38907;45.562;8.856;2022-11-28T19:37:16;40.90;;;22.88;;
51020;SDS011;38907;45.562;8.856;2022-11-28T19:42:17;45.67;;;30.30;;
51020;SDS011;38907;45.562;8.856;2022-11-28T19:47:21;53.38;;;32.08;;
51020;SDS011;38907;45.562;8.856;2022-11-28T19:52:24;53.80;;;31.27;;
51020;SDS011;38907;45.562;8.856;2022-11-28T19:57:26;52.53;;;31.55;;
51020;SDS011;38907;45.562;8.856;2022-11-28T20:02:29;66.45;;;37.67;;
51020;SDS011;38907;45.562;8.856;2022-11-28T20:07:31;54.03;;;32.03;;
51020;SDS011;38907;45.562;8.856;2022-11-28T20:12:33;44.90;;;27.50;;
51020;SDS011;38907;45.562;8.856;2022-11-28T20:17:36;45.85;;;26.08;;
51020;SDS011;38907;45.562;8.856;2022-11-28T20:22:38;48.90;;;27.83;;
51020;SDS011;38907;45.562;8.856;2022-11-28T20:27:40;53.67;;;28.77;;
51020;SDS011;38907;45.562;8.856;2022-11-28T20:32:43;48.40;;;29.02;;
51020;SDS011;38907;45.562;8.856;2022-11-28T20:37:45;42.42;;;26.92;;
51020;SDS011;38907;45.562;8.856;2022-11-28T20:42:48;47.90;;;27.38;;
51020;SDS011;38907;45.562;8.856;2022-11-28T20:47:51;60.28;;;32.33;;
51020;SDS011;38907;45.562;8.856;2022-11-28T20:52:53;62.70;;;35.45;;
51020;SDS011;38907;45.562;8.856;2022-11-28T20:57:55;63.35;;;35.03;;
51020;SDS011;38907;45.562;8.856;2022-11-28T21:02:58;54.83;;;34.45;;
51020;SDS011;38907;45.562;8.856;2022-11-28T21:08:00;66.85;;;36.28;;
51020;SDS011;38907;45.562;8.856;2022-11-28T21:13:02;66.53;;;35.80;;
51020;SDS011;38907;45.562;8.856;2022-11-28T21:18:05;53.65;;;32.45;;
51020;SDS011;38907;45.562;8.856;2022-11-28T21:23:08;61.83;;;32.80;;
51020;SDS011;38907;45.562;8.856;2022-11-28T21:28:10;54.75;;;34.83;;
51020;SDS011;38907;45.562;8.856;2022-11-28T21:33:14;59.03;;;35.67;;
51020;SDS011;38907;45.562;8.856;2022-11-28T21:38:16;57.42;;;35.97;;
51020;SDS011;38907;45.562;8.856;2022-11-28T21:43:18;68.40;;;41.03;;
51020;SDS011;38907;45.562;8.856;2022-11-28T21:48:21;69.43;;;42.67;;
51020;SDS011;38907;45.562;8.856;2022-11-28T21:53:24;74.25;;;41.95;;
51020;SDS011;38907;45.562;8.856;2022-11-28T21:58:26;70.30;;;39.20;;
51020;SDS011;38907;45.562;8.856;2022-11-28T22:03:31;68.97;;;39.57;;
51020;SDS011;38907;45.562;8.856;2022-11-28T22:08:33;69.57;;;40.25;;
51020;SDS011;38907;45.562;8.856;2022-11-28T22:13:36;73.28;;;39.38;;
51020;SDS011;38907;45.562;8.856;2022-11-28T22:18:39;73.65;;;40.70;;
51020;SDS011;38907;45.562;8.856;2022-11-28T22:23:41;70.20;;;40.13;;
51020;SDS011;38907;45.562;8.856;2022-11-28T22:28:45;78.97;;;41.28;;
51020;SDS011;38907;45.562;8.856;2022-11-28T22:33:48;72.72;;;38.97;;
51020;SDS011;38907;45.562;8.856;2022-11-28T22:38:52;77.63;;;40.33;;
51020;SDS011;38907;45.562;8.856;2022-11-28T22:43:56;76.50;;;39.58;;
51020;SDS011;38907;45.562;8.856;2022-11-28T22:49:01;73.35;;;40.03;;
51020;SDS011;38907;45.562;8.856;2022-11-28T22:54:03;65.60;;;39.85;;
51020;SDS011;38907;45.562;8.856;2022-11-28T22:59:08;68.25;;;38.22;;
51020;SDS011;38907;45.562;8.856;2022-11-28T23:04:13;76.15;;;41.28;;
51020;SDS011;38907;45.562;8.856;2022-11-28T23:09:15;65.35;;;37.85;;
51020;SDS011;38907;45.562;8.856;2022-11-28T23:14:17;66.65;;;37.50;;
51020;SDS011;38907;45.562;8.856;2022-11-28T23:19:20;68.35;;;40.53;;
51020;SDS011;38907;45.562;8.856;2022-11-28T23:24:22;65.47;;;40.10;;
51020;SDS011;38907;45.562;8.856;2022-11-28T23:29:24;66.88;;;40.13;;
51020;SDS011;38907;45.562;8.856;2022-11-28T23:34:27;65.93;;;39.13;;
51020;SDS011;38907;45.562;8.856;2022-11-28T23:39:29;59.08;;;36.17;;
51020;SDS011;38907;45.562;8.856;2022-11-28T23:44:31;67.22;;;41.42;;
51020;SDS011;38907;45.562;8.856;2022-11-28T23:49:34;62.90;;;39.13;;
51020;SDS011;38907;45.562;8.856;2022-11-28T23:54:36;59.63;;;37.08;;
51020;SDS011;38907;45.562;8.856;2022-11-28T23:59:38;60.03;;;36.67;;
